createdAt,value
2019-03-27T00:00:12.763Z,4.70
2019-03-27T04:47:31.932Z,4.20
2019-03-27T04:49:54.796Z,4.30
2019-03-27T04:52:23.251Z,4.30
2019-03-27T04:54:51.675Z,4.30
2019-03-27T04:57:20.116Z,4.20
2019-03-27T05:00:07.886Z,4.20
2019-03-27T05:02:36.384Z,4.20
2019-03-27T05:05:07.088Z,4.30
2019-03-27T05:07:35.515Z,4.40
2019-03-27T05:10:05.161Z,4.50
2019-03-27T05:12:33.655Z,4.50
2019-03-27T05:15:02.091Z,4.50
2019-03-27T05:17:30.516Z,4.50
2019-03-27T05:19:59.056Z,4.50
2019-03-27T05:22:27.481Z,4.30
2019-03-27T05:24:55.910Z,4.10
2019-03-27T05:27:24.409Z,4.00
2019-03-27T05:29:52.840Z,4.10
2019-03-27T05:32:21.270Z,4.10
2019-03-27T05:34:49.715Z,4.00
2019-03-27T05:37:18.202Z,4.00
2019-03-27T05:39:46.632Z,4.00
2019-03-27T05:42:15.055Z,4.10
2019-03-27T05:44:43.483Z,4.10
2019-03-27T05:47:11.915Z,4.20
2019-03-27T05:49:40.363Z,4.20
2019-03-27T05:52:08.792Z,4.30
2019-03-27T05:54:37.223Z,4.40
2019-03-27T05:57:05.650Z,4.50
2019-03-27T05:59:34.081Z,4.60
2019-03-27T06:02:02.522Z,4.70
2019-03-27T06:04:30.944Z,4.80
2019-03-27T06:06:59.368Z,5.00
2019-03-27T06:09:27.794Z,5.10
2019-03-27T06:11:56.303Z,5.30
2019-03-27T06:14:24.728Z,5.50
2019-03-27T06:16:53.351Z,5.60
2019-03-27T06:19:21.840Z,5.80
2019-03-27T06:21:50.268Z,5.90
2019-03-27T06:24:18.750Z,6.10
2019-03-27T06:26:47.272Z,6.10
2019-03-27T06:29:16.063Z,6.10
2019-03-27T06:31:45.034Z,6.00
2019-03-27T06:34:13.472Z,6.00
2019-03-27T06:36:41.935Z,6.00
2019-03-27T06:39:10.395Z,5.90
2019-03-27T06:41:38.887Z,5.90
2019-03-27T06:44:07.369Z,5.80
2019-03-27T06:46:35.805Z,6.00
2019-03-27T06:49:04.292Z,6.10
2019-03-27T06:51:39.977Z,6.20
2019-03-27T06:54:02.983Z,6.40
2019-03-27T06:56:31.407Z,6.70
2019-03-27T06:58:59.837Z,6.80
2019-03-27T07:01:28.259Z,6.90
2019-03-27T07:04:09.531Z,7.10
2019-03-27T07:06:26.873Z,7.20
2019-03-27T07:08:55.304Z,7.20
2019-03-27T07:11:23.795Z,7.30
2019-03-27T07:13:52.280Z,7.50
2019-03-27T07:16:20.714Z,7.60
2019-03-27T07:18:49.182Z,7.70
2019-03-27T07:21:17.692Z,7.90
2019-03-27T07:23:46.255Z,7.90
2019-03-27T07:26:14.739Z,8.10
2019-03-27T07:28:43.181Z,8.10
2019-03-27T07:31:11.632Z,8.10
2019-03-27T07:33:40.144Z,8.00
2019-03-27T07:36:08.567Z,7.90
2019-03-27T07:38:37.009Z,7.80
2019-03-27T07:41:05.616Z,7.90
2019-03-27T07:43:34.059Z,8.00
2019-03-27T07:46:02.577Z,8.20
2019-03-27T07:48:30.992Z,8.40
2019-03-27T07:50:59.515Z,8.40
2019-03-27T07:53:27.950Z,8.40
2019-03-27T07:55:56.392Z,8.40
2019-03-27T07:58:24.848Z,8.30
2019-03-27T08:00:53.379Z,8.20
2019-03-27T08:03:21.804Z,8.20
2019-03-27T08:05:50.317Z,8.20
2019-03-27T08:08:18.761Z,8.30
2019-03-27T08:10:47.204Z,8.40
2019-03-27T08:13:15.632Z,8.40
2019-03-27T08:15:44.071Z,8.50
2019-03-27T08:18:12.506Z,8.50
2019-03-27T08:20:40.959Z,8.70
2019-03-27T08:23:09.405Z,8.60
2019-03-27T08:25:37.847Z,8.60
2019-03-27T08:28:06.280Z,8.70
2019-03-27T08:30:34.716Z,8.70
2019-03-27T08:33:03.225Z,8.90
2019-03-27T08:35:31.664Z,8.90
2019-03-27T08:38:00.100Z,9.00
2019-03-27T08:40:28.556Z,9.00
2019-03-27T08:42:56.993Z,9.10
2019-03-27T08:45:25.423Z,9.20
2019-03-27T08:47:53.867Z,9.40
2019-03-27T08:50:22.292Z,9.10
2019-03-27T08:52:50.728Z,9.00
2019-03-27T08:55:19.310Z,9.20
2019-03-27T08:57:47.816Z,9.30
2019-03-27T09:00:21.339Z,9.40
2019-03-27T09:02:49.545Z,9.50
2019-03-27T09:05:18.036Z,9.50
2019-03-27T09:07:46.482Z,9.50
2019-03-27T09:10:15.932Z,9.70
2019-03-27T09:12:44.363Z,10.50
2019-03-27T09:15:13.039Z,11.50
2019-03-27T09:17:41.493Z,12.80
2019-03-27T09:20:10.300Z,13.60
2019-03-27T09:22:38.738Z,13.90
2019-03-27T09:25:07.331Z,13.80
2019-03-27T09:27:35.769Z,14.30
2019-03-27T09:30:09.694Z,15.00
2019-03-27T09:32:38.123Z,15.60
2019-03-27T09:35:06.916Z,15.50
2019-03-27T09:37:35.416Z,14.90
2019-03-27T09:40:05.153Z,14.00
2019-03-27T09:42:33.621Z,13.70
2019-03-27T09:45:02.148Z,13.60
2019-03-27T09:47:30.660Z,14.70
2019-03-27T09:49:59.092Z,16.60
2019-03-27T09:52:27.531Z,17.50
2019-03-27T09:54:55.986Z,17.50
2019-03-27T09:57:24.500Z,17.10
2019-03-27T09:59:53.115Z,16.50
2019-03-27T10:02:21.567Z,17.50
2019-03-27T10:04:50.020Z,18.90
2019-03-27T10:07:18.527Z,19.80
2019-03-27T10:09:50.245Z,20.30
2019-03-27T10:12:17.212Z,20.20
2019-03-27T10:14:47.577Z,20.00
2019-03-27T10:17:15.832Z,20.00
2019-03-27T10:19:44.262Z,20.20
2019-03-27T10:22:12.717Z,19.80
2019-03-27T10:24:41.274Z,20.40
2019-03-27T10:27:09.724Z,21.60
2019-03-27T10:29:38.147Z,22.10
2019-03-27T10:32:06.588Z,22.60
2019-03-27T10:34:35.012Z,22.60
2019-03-27T10:37:03.543Z,22.30
2019-03-27T10:39:31.999Z,22.90
2019-03-27T10:42:00.496Z,23.00
2019-03-27T10:44:28.965Z,23.50
2019-03-27T10:46:57.388Z,24.30
2019-03-27T10:49:25.824Z,24.50
2019-03-27T10:51:54.251Z,24.60
2019-03-27T10:54:22.683Z,23.50
2019-03-27T10:56:51.108Z,23.40
2019-03-27T10:59:19.545Z,22.80
2019-03-27T11:01:47.972Z,22.70
2019-03-27T11:04:16.417Z,22.70
2019-03-27T11:06:44.839Z,22.80
2019-03-27T11:09:13.272Z,22.60
2019-03-27T11:11:41.696Z,22.70
2019-03-27T11:14:10.159Z,23.20
2019-03-27T11:16:38.596Z,23.10
2019-03-27T11:19:07.068Z,23.10
2019-03-27T11:21:35.491Z,23.40
2019-03-27T11:24:04.029Z,23.70
2019-03-27T11:26:32.448Z,23.40
2019-03-27T11:29:00.900Z,23.20
2019-03-27T11:31:29.325Z,23.20
2019-03-27T11:33:57.920Z,23.00
2019-03-27T11:36:26.378Z,22.30
2019-03-27T11:38:54.823Z,21.40
2019-03-27T11:41:23.329Z,21.10
2019-03-27T11:43:55.069Z,21.40
2019-03-27T11:46:21.933Z,21.20
2019-03-27T11:48:50.372Z,20.50
2019-03-27T11:51:18.799Z,19.30
2019-03-27T11:53:47.248Z,18.60
2019-03-27T11:56:15.681Z,17.90
2019-03-27T11:58:44.129Z,17.10
2019-03-27T12:01:12.578Z,17.10
2019-03-27T12:03:41.035Z,17.00
2019-03-27T12:06:09.472Z,16.70
2019-03-27T12:08:37.960Z,16.40
2019-03-27T12:11:06.392Z,15.80
2019-03-27T12:13:34.816Z,15.60
2019-03-27T12:16:03.703Z,15.50
2019-03-27T12:18:32.542Z,15.50
2019-03-27T12:21:00.991Z,15.10
2019-03-27T12:23:29.415Z,14.80
2019-03-27T12:25:57.844Z,14.70
2019-03-27T12:28:26.288Z,14.70
2019-03-27T12:30:54.725Z,15.00
2019-03-27T12:33:23.172Z,15.20
2019-03-27T12:35:51.637Z,15.30
2019-03-27T12:38:20.170Z,15.00
2019-03-27T12:40:48.629Z,14.70
2019-03-27T12:43:17.071Z,14.50
2019-03-27T12:45:45.529Z,14.40
2019-03-27T12:48:13.981Z,14.90
2019-03-27T12:50:44.404Z,14.90
2019-03-27T12:53:12.667Z,14.90
2019-03-27T12:55:41.119Z,14.70
2019-03-27T12:58:11.756Z,14.60
2019-03-27T13:00:40.327Z,14.60
2019-03-27T13:03:08.950Z,14.70
2019-03-27T13:05:37.450Z,14.60
2019-03-27T13:08:05.964Z,14.40
2019-03-27T13:10:34.441Z,14.40
2019-03-27T13:13:02.987Z,14.40
2019-03-27T13:15:31.450Z,14.30
2019-03-27T13:17:59.969Z,14.40
2019-03-27T13:20:28.479Z,14.50
2019-03-27T13:22:56.977Z,14.50
2019-03-27T13:25:25.479Z,14.30
2019-03-27T13:27:53.907Z,14.20
2019-03-27T13:30:22.637Z,14.00
2019-03-27T13:32:51.078Z,14.00
2019-03-27T13:35:19.574Z,14.10
2019-03-27T13:37:48.004Z,14.10
2019-03-27T13:40:16.940Z,13.80
2019-03-27T13:42:45.372Z,13.50
2019-03-27T13:45:14.709Z,13.50
2019-03-27T13:47:43.171Z,13.50
2019-03-27T13:50:14.330Z,13.60
2019-03-27T13:52:43.006Z,13.60
2019-03-27T13:55:11.705Z,13.60
2019-03-27T13:57:40.159Z,13.70
2019-03-27T14:00:12.111Z,13.50
2019-03-27T14:02:40.549Z,13.60
2019-03-27T14:05:09.623Z,14.00
2019-03-27T14:07:38.199Z,14.40
2019-03-27T14:10:07.985Z,14.60
2019-03-27T14:12:36.645Z,14.70
2019-03-27T14:15:08.214Z,15.10
2019-03-27T14:17:36.748Z,15.50
2019-03-27T14:20:07.189Z,15.80
2019-03-27T14:22:35.657Z,15.90
2019-03-27T14:25:09.060Z,16.10
2019-03-27T14:27:37.684Z,16.20
2019-03-27T14:30:08.744Z,16.20
2019-03-27T14:32:37.269Z,16.20
2019-03-27T14:35:06.067Z,16.10
2019-03-27T14:37:34.610Z,16.00
2019-03-27T14:40:03.696Z,15.90
2019-03-27T14:42:32.147Z,16.00
2019-03-27T14:45:00.621Z,15.90
2019-03-27T14:47:29.099Z,16.00
2019-03-27T14:49:57.668Z,16.40
2019-03-27T14:52:26.124Z,16.30
2019-03-27T14:54:54.583Z,16.10
2019-03-27T14:57:23.131Z,15.90
2019-03-27T14:59:51.600Z,15.80
2019-03-27T15:02:20.226Z,15.70
2019-03-27T15:04:48.777Z,15.90
2019-03-27T15:07:17.246Z,16.10
2019-03-27T15:09:45.677Z,15.90
2019-03-27T15:12:14.220Z,16.00
2019-03-27T15:14:42.684Z,16.00
2019-03-27T15:17:12.082Z,16.10
2019-03-27T15:19:40.545Z,16.20
2019-03-27T15:22:21.669Z,16.40
2019-03-27T15:24:39.253Z,16.60
2019-03-27T15:27:07.766Z,16.50
2019-03-27T15:29:36.201Z,16.50
2019-03-27T15:32:04.791Z,16.30
2019-03-27T15:34:33.225Z,16.00
2019-03-27T15:37:01.677Z,15.60
2019-03-27T15:39:30.110Z,15.40
2019-03-27T15:41:58.838Z,15.10
2019-03-27T15:44:27.274Z,14.60
2019-03-27T15:46:56.050Z,14.50
2019-03-27T15:49:24.514Z,14.60
2019-03-27T15:51:53.038Z,14.60
2019-03-27T15:54:21.485Z,14.70
2019-03-27T15:56:50.068Z,14.60
2019-03-27T15:59:18.646Z,14.30
2019-03-27T16:01:47.104Z,14.20
2019-03-27T16:04:15.608Z,14.30
2019-03-27T16:06:44.039Z,14.10
2019-03-27T16:09:16.278Z,14.00
2019-03-27T16:11:44.772Z,14.00
2019-03-27T16:14:13.224Z,14.00
2019-03-27T16:16:41.669Z,13.90
2019-03-27T16:19:10.170Z,14.00
2019-03-27T16:21:38.608Z,14.00
2019-03-27T16:24:07.072Z,14.10
2019-03-27T16:26:35.615Z,14.20
2019-03-27T16:29:04.244Z,14.40
2019-03-27T16:31:32.764Z,14.30
2019-03-27T16:34:02.130Z,14.20
2019-03-27T16:36:30.558Z,14.10
2019-03-27T16:38:59.077Z,14.10
2019-03-27T16:41:27.571Z,14.00
2019-03-27T16:43:56.187Z,13.90
2019-03-27T16:46:24.765Z,13.90
2019-03-27T16:48:53.227Z,13.90
2019-03-27T16:51:22.810Z,13.80
2019-03-27T16:53:51.442Z,13.80
2019-03-27T16:56:19.920Z,13.70
2019-03-27T16:58:48.455Z,13.80
2019-03-27T17:01:17.842Z,13.70
2019-03-27T17:03:46.321Z,13.60
2019-03-27T17:06:15.113Z,13.50
2019-03-27T17:08:43.909Z,13.40
2019-03-27T17:11:12.776Z,13.20
2019-03-27T17:13:41.301Z,13.10
2019-03-27T17:16:10.982Z,13.10
2019-03-27T17:18:40.108Z,13.00
2019-03-27T17:21:08.567Z,12.80
2019-03-27T17:23:37.010Z,12.70
2019-03-27T17:26:05.477Z,12.50
2019-03-27T17:28:33.998Z,12.00
2019-03-27T17:31:02.435Z,11.80
2019-03-27T17:33:32.768Z,11.50
2019-03-27T17:36:01.333Z,11.30
2019-03-27T17:38:29.795Z,11.30
2019-03-27T17:40:58.699Z,11.10
2019-03-27T17:43:27.223Z,10.90
2019-03-27T17:45:55.773Z,10.90
2019-03-27T17:48:24.266Z,10.80
2019-03-27T17:50:52.733Z,10.50
2019-03-27T17:53:31.031Z,10.50
2019-03-27T17:55:51.406Z,10.40
2019-03-27T17:58:19.864Z,10.40
2019-03-27T18:00:50.534Z,10.30
2019-03-27T18:03:19.080Z,10.20
2019-03-27T18:05:48.125Z,10.20
2019-03-27T18:08:16.573Z,10.20
2019-03-27T18:10:45.019Z,10.10
2019-03-27T18:13:13.613Z,10.10
2019-03-27T18:15:42.680Z,10.00
2019-03-27T18:18:11.400Z,10.00
2019-03-27T18:20:40.376Z,9.90
2019-03-27T18:23:08.905Z,9.80
2019-03-27T18:25:37.559Z,9.70
2019-03-27T18:28:06.438Z,9.70
2019-03-27T18:30:34.876Z,9.50
2019-03-27T18:33:03.326Z,9.40
2019-03-27T18:35:31.808Z,9.30
2019-03-27T18:38:00.342Z,9.30
2019-03-27T18:40:28.811Z,9.10
2019-03-27T18:42:57.310Z,8.90
2019-03-27T18:45:26.198Z,8.80
2019-03-27T18:47:55.013Z,8.70
2019-03-27T18:50:24.029Z,8.60
2019-03-27T18:52:54.146Z,8.60
2019-03-27T18:55:28.371Z,8.60
2019-03-27T18:58:01.055Z,8.60
2019-03-27T19:00:33.096Z,8.50
2019-03-27T19:03:05.036Z,8.20
2019-03-27T19:05:35.112Z,8.00
2019-03-27T19:08:06.188Z,7.90
2019-03-27T19:10:38.322Z,7.70
2019-03-27T19:13:11.105Z,7.50
2019-03-27T19:15:41.370Z,7.50
2019-03-27T19:18:10.820Z,7.40
2019-03-27T19:20:39.399Z,7.30
2019-03-27T19:23:07.927Z,7.30
2019-03-27T19:25:36.473Z,7.30
2019-03-27T19:28:04.971Z,7.20
2019-03-27T19:30:33.591Z,7.00
2019-03-27T19:33:02.137Z,6.90
2019-03-27T19:35:30.763Z,6.90
2019-03-27T19:37:59.189Z,6.90
2019-03-27T19:40:27.695Z,7.00
2019-03-27T19:42:56.174Z,7.00
2019-03-27T19:45:24.801Z,7.10
2019-03-27T19:47:53.336Z,6.90
2019-03-27T19:50:21.827Z,6.70
2019-03-27T19:52:50.273Z,6.70
2019-03-27T19:55:18.782Z,6.70
2019-03-27T19:57:47.296Z,6.60
2019-03-27T20:00:16.328Z,6.60
2019-03-27T20:02:44.894Z,6.60
2019-03-27T20:05:13.570Z,6.60
2019-03-27T20:07:42.105Z,6.60
2019-03-27T20:10:16.098Z,6.60
2019-03-27T20:12:46.737Z,6.60
2019-03-27T20:15:15.772Z,6.60
2019-03-27T20:17:44.240Z,6.70
2019-03-27T20:20:13.949Z,6.70
2019-03-27T20:22:42.509Z,6.70
2019-03-27T20:25:14.651Z,6.60
2019-03-27T20:27:42.073Z,6.50
2019-03-27T20:30:16.634Z,6.40
2019-03-27T20:32:48.742Z,6.40
2019-03-27T20:35:22.773Z,6.30
2019-03-27T20:37:51.515Z,6.20
2019-03-27T20:40:20.220Z,6.10
2019-03-27T20:42:52.247Z,6.00
2019-03-27T20:45:22.639Z,6.00
2019-03-27T20:47:51.175Z,5.90
2019-03-27T20:50:21.256Z,6.00
2019-03-27T20:52:49.789Z,5.80
2019-03-27T20:55:29.695Z,5.60
2019-03-27T20:57:49.527Z,5.50
2019-03-27T21:00:18.948Z,5.40
2019-03-27T21:02:47.610Z,5.40
2019-03-27T21:05:16.315Z,5.40
2019-03-27T21:07:44.838Z,5.40
2019-03-27T21:10:14.463Z,5.40
2019-03-27T21:12:42.952Z,5.40
2019-03-27T21:15:11.833Z,5.60
2019-03-27T21:17:40.314Z,5.70
2019-03-27T21:20:09.899Z,5.60
2019-03-27T21:22:39.011Z,5.70
2019-03-27T21:25:09.664Z,5.70
2019-03-27T21:27:38.373Z,5.80
2019-03-27T21:30:11.278Z,5.70
2019-03-27T21:32:39.809Z,5.70
2019-03-27T21:35:08.595Z,5.70
2019-03-27T21:37:37.121Z,5.70
2019-03-27T21:40:06.887Z,5.70
2019-03-27T21:42:35.411Z,5.50
2019-03-27T21:45:06.671Z,5.50
2019-03-27T21:47:35.100Z,5.40
2019-03-27T21:50:04.822Z,5.40
2019-03-27T21:52:33.251Z,5.30
2019-03-27T21:55:01.684Z,5.10
2019-03-27T21:57:30.204Z,5.10
2019-03-27T21:59:58.726Z,5.10
2019-03-27T22:02:27.700Z,5.10
2019-03-27T22:04:56.132Z,5.00
2019-03-27T22:07:24.569Z,5.00
2019-03-27T22:09:53.073Z,4.90
2019-03-27T22:12:21.542Z,4.90
2019-03-27T22:14:50.044Z,4.80
2019-03-27T22:17:18.472Z,4.80
2019-03-27T22:19:46.904Z,4.80
2019-03-27T22:22:15.441Z,4.80
2019-03-27T22:24:47.237Z,4.90
2019-03-27T22:27:15.729Z,4.90
2019-03-27T22:29:44.155Z,5.00
2019-03-27T22:32:12.611Z,5.00
2019-03-27T22:34:44.360Z,5.00
2019-03-27T22:37:12.283Z,5.10
2019-03-27T22:39:40.711Z,5.00
2019-03-27T22:42:09.174Z,5.10
2019-03-27T22:44:38.145Z,5.10
2019-03-27T22:47:07.190Z,5.00
2019-03-27T22:49:35.767Z,5.00
2019-03-27T22:52:04.256Z,5.00
2019-03-27T22:54:32.754Z,4.80
2019-03-27T22:57:01.263Z,4.70
2019-03-27T22:59:29.694Z,4.60
2019-03-27T23:01:58.149Z,4.40
2019-03-27T23:04:26.576Z,4.30
2019-03-27T23:06:55.035Z,4.20
2019-03-27T23:09:23.455Z,4.00
2019-03-27T23:11:51.909Z,3.90
2019-03-27T23:14:20.334Z,3.80
2019-03-27T23:16:48.786Z,3.80
2019-03-27T23:19:17.276Z,3.80
2019-03-27T23:21:45.707Z,3.70
2019-03-27T23:24:14.141Z,3.70
2019-03-27T23:26:42.563Z,3.70
2019-03-27T23:29:11.047Z,3.70
2019-03-27T23:31:39.568Z,3.70
2019-03-27T23:34:08.105Z,3.70
2019-03-27T23:36:36.641Z,3.70
2019-03-27T23:39:07.420Z,3.60
2019-03-27T23:41:35.851Z,3.50
2019-03-27T23:44:04.344Z,3.50
2019-03-27T23:46:32.768Z,3.40
2019-03-27T23:49:01.260Z,3.40
2019-03-27T23:51:29.703Z,3.30
2019-03-27T23:53:58.207Z,3.40
2019-03-27T23:56:26.634Z,3.50
2019-03-27T23:58:55.067Z,3.50
